sensor_id;sensor_type;location;lat;lon;timestamp;pressure;altitude;pressure_sealevel;temperature;humidity
21203;BME280;10759;51.982;9.232;2024-01-27T00:00:17;101906.97;;;5.41;100.00
21203;BME280;10759;51.982;9.232;2024-01-27T00:02:45;101917.56;;;5.32;100.00
21203;BME280;10759;51.982;9.232;2024-01-27T00:05:13;101898.88;;;5.26;100.00
21203;BME280;10759;51.982;9.232;2024-01-27T00:07:41;101922.94;;;5.40;100.00
21203;BME280;10759;51.982;9.232;2024-01-27T00:10:09;101891.84;;;5.31;100.00
21203;BME280;10759;51.982;9.232;2024-01-27T00:12:37;101918.38;;;5.23;100.00
21203;BME280;10759;51.982;9.232;2024-01-27T00:15:07;101933.50;;;5.30;100.00
21203;BME280;10759;51.982;9.232;2024-01-27T00:17:37;101944.91;;;5.17;100.00
21203;BME280;10759;51.982;9.232;2024-01-27T00:20:07;101948.53;;;5.28;100.00
21203;BME280;10759;51.982;9.232;2024-01-27T00:22:35;101936.06;;;5.20;100.00
21203;BME280;10759;51.982;9.232;2024-01-27T00:25:04;101945.00;;;5.29;100.00
21203;BME280;10759;51.982;9.232;2024-01-27T00:27:32;101947.69;;;5.32;100.00
21203;BME280;10759;51.982;9.232;2024-01-27T00:30:00;101915.47;;;4.99;100.00
21203;BME280;10759;51.982;9.232;2024-01-27T00:32:28;101945.78;;;5.18;100.00
21203;BME280;10759;51.982;9.232;2024-01-27T00:34:58;101949.19;;;5.03;100.00
21203;BME280;10759;51.982;9.232;2024-01-27T00:37:26;101952.66;;;4.95;100.00
21203;BME280;10759;51.982;9.232;2024-01-27T00:39:54;101950.13;;;5.08;100.00
21203;BME280;10759;51.982;9.232;2024-01-27T00:42:25;101960.75;;;5.05;100.00
21203;BME280;10759;51.982;9.232;2024-01-27T00:44:53;101954.47;;;5.01;100.00
21203;BME280;10759;51.982;9.232;2024-01-27T00:47:21;101958.03;;;5.02;100.00
21203;BME280;10759;51.982;9.232;2024-01-27T00:49:49;101955.38;;;5.02;100.00
21203;BME280;10759;51.982;9.232;2024-01-27T00:52:19;101945.50;;;4.88;100.00
21203;BME280;10759;51.982;9.232;2024-01-27T00:54:47;101938.13;;;4.61;100.00
21203;BME280;10759;51.982;9.232;2024-01-27T00:57:15;101965.81;;;4.83;100.00
21203;BME280;10759;51.982;9.232;2024-01-27T00:59:43;101963.03;;;4.71;100.00
21203;BME280;10759;51.982;9.232;2024-01-27T01:02:12;101963.06;;;4.77;100.00
21203;BME280;10759;51.982;9.232;2024-01-27T01:04:40;101915.88;;;4.51;100.00
21203;BME280;10759;51.982;9.232;2024-01-27T01:07:09;101960.28;;;4.63;100.00
21203;BME280;10759;51.982;9.232;2024-01-27T01:09:38;101971.75;;;4.62;100.00
21203;BME280;10759;51.982;9.232;2024-01-27T01:12:06;101978.75;;;4.54;100.00
21203;BME280;10759;51.982;9.232;2024-01-27T01:14:36;101976.91;;;4.47;100.00
21203;BME280;10759;51.982;9.232;2024-01-27T01:17:04;101970.59;;;4.40;100.00
21203;BME280;10759;51.982;9.232;2024-01-27T01:19:32;101972.59;;;4.57;100.00
21203;BME280;10759;51.982;9.232;2024-01-27T01:22:01;101976.19;;;4.62;100.00
21203;BME280;10759;51.982;9.232;2024-01-27T01:24:29;101979.75;;;4.64;100.00
21203;BME280;10759;51.982;9.232;2024-01-27T01:26:58;101935.53;;;3.94;100.00
21203;BME280;10759;51.982;9.232;2024-01-27T01:29:27;101999.50;;;4.17;100.00
21203;BME280;10759;51.982;9.232;2024-01-27T01:31:55;101992.56;;;4.27;100.00
21203;BME280;10759;51.982;9.232;2024-01-27T01:34:22;101999.66;;;4.26;100.00
21203;BME280;10759;51.982;9.232;2024-01-27T01:36:53;101984.16;;;3.96;100.00
21203;BME280;10759;51.982;9.232;2024-01-27T01:39:21;102001.94;;;4.03;100.00
21203;BME280;10759;51.982;9.232;2024-01-27T01:41:49;101994.22;;;4.19;100.00
21203;BME280;10759;51.982;9.232;2024-01-27T01:44:22;101988.97;;;4.22;100.00
21203;BME280;10759;51.982;9.232;2024-01-27T01:46:50;101999.63;;;4.25;100.00
21203;BME280;10759;51.982;9.232;2024-01-27T01:49:18;102008.53;;;4.28;100.00
21203;BME280;10759;51.982;9.232;2024-01-27T01:51:46;102012.91;;;4.28;100.00
21203;BME280;10759;51.982;9.232;2024-01-27T01:54:14;102014.41;;;4.07;100.00
21203;BME280;10759;51.982;9.232;2024-01-27T01:56:43;101997.31;;;3.87;100.00
21203;BME280;10759;51.982;9.232;2024-01-27T01:59:11;102025.91;;;4.08;100.00
21203;BME280;10759;51.982;9.232;2024-01-27T02:01:41;102028.47;;;4.03;100.00
21203;BME280;10759;51.982;9.232;2024-01-27T02:04:12;102017.09;;;4.11;100.00
21203;BME280;10759;51.982;9.232;2024-01-27T02:06:40;102009.06;;;4.06;100.00
21203;BME280;10759;51.982;9.232;2024-01-27T02:09:08;101968.28;;;3.98;100.00
21203;BME280;10759;51.982;9.232;2024-01-27T02:11:37;102009.19;;;4.15;100.00
21203;BME280;10759;51.982;9.232;2024-01-27T02:14:06;101977.03;;;3.94;100.00
21203;BME280;10759;51.982;9.232;2024-01-27T02:16:34;101997.41;;;3.96;100.00
21203;BME280;10759;51.982;9.232;2024-01-27T02:19:03;102004.69;;;4.08;100.00
21203;BME280;10759;51.982;9.232;2024-01-27T02:21:31;101999.16;;;3.93;100.00
21203;BME280;10759;51.982;9.232;2024-01-27T02:23:59;102002.66;;;3.90;100.00
21203;BME280;10759;51.982;9.232;2024-01-27T02:26:29;102011.53;;;3.94;100.00
21203;BME280;10759;51.982;9.232;2024-01-27T02:28:57;102006.34;;;4.00;100.00
21203;BME280;10759;51.982;9.232;2024-01-27T02:31:25;101909.13;;;3.42;100.00
21203;BME280;10759;51.982;9.232;2024-01-27T02:33:53;101995.41;;;3.80;100.00
21203;BME280;10759;51.982;9.232;2024-01-27T02:36:21;102006.22;;;3.94;100.00
21203;BME280;10759;51.982;9.232;2024-01-27T02:38:49;102007.94;;;3.90;100.00
21203;BME280;10759;51.982;9.232;2024-01-27T02:41:17;102010.59;;;3.90;100.00
21203;BME280;10759;51.982;9.232;2024-01-27T02:43:47;102007.06;;;3.91;100.00
21203;BME280;10759;51.982;9.232;2024-01-27T02:46:15;102011.28;;;3.77;100.00
21203;BME280;10759;51.982;9.232;2024-01-27T02:48:43;102017.56;;;3.82;100.00
21203;BME280;10759;51.982;9.232;2024-01-27T02:51:11;102002.41;;;3.76;100.00
21203;BME280;10759;51.982;9.232;2024-01-27T02:53:39;102018.53;;;3.88;100.00
21203;BME280;10759;51.982;9.232;2024-01-27T02:56:07;102021.13;;;3.84;100.00
21203;BME280;10759;51.982;9.232;2024-01-27T02:58:36;102024.75;;;3.89;100.00
21203;BME280;10759;51.982;9.232;2024-01-27T03:01:07;102026.44;;;3.84;100.00
21203;BME280;10759;51.982;9.232;2024-01-27T03:03:35;102018.22;;;3.67;100.00
21203;BME280;10759;51.982;9.232;2024-01-27T03:06:04;102013.88;;;3.74;100.00
21203;BME280;10759;51.982;9.232;2024-01-27T03:08:32;102017.38;;;3.70;100.00
21203;BME280;10759;51.982;9.232;2024-01-27T03:11:00;102010.25;;;3.67;100.00
21203;BME280;10759;51.982;9.232;2024-01-27T03:13:28;101982.53;;;3.48;100.00
21203;BME280;10759;51.982;9.232;2024-01-27T03:15:56;102027.84;;;3.63;100.00
21203;BME280;10759;51.982;9.232;2024-01-27T03:18:26;102021.69;;;3.64;100.00
21203;BME280;10759;51.982;9.232;2024-01-27T03:20:54;102024.34;;;3.64;100.00
21203;BME280;10759;51.982;9.232;2024-01-27T03:23:22;102027.81;;;3.60;100.00
21203;BME280;10759;51.982;9.232;2024-01-27T03:25:50;102023.31;;;3.56;100.00
21203;BME280;10759;51.982;9.232;2024-01-27T03:28:20;102018.72;;;3.46;100.00
21203;BME280;10759;51.982;9.232;2024-01-27T03:30:48;102014.31;;;3.47;100.00
21203;BME280;10759;51.982;9.232;2024-01-27T03:33:15;102022.38;;;3.54;100.00
21203;BME280;10759;51.982;9.232;2024-01-27T03:35:45;102023.31;;;3.55;100.00
21203;BME280;10759;51.982;9.232;2024-01-27T03:38:13;102029.50;;;3.55;100.00
21203;BME280;10759;51.982;9.232;2024-01-27T03:40:43;102024.19;;;3.55;100.00
21203;BME280;10759;51.982;9.232;2024-01-27T03:43:11;102026.81;;;3.54;100.00
21203;BME280;10759;51.982;9.232;2024-01-27T03:45:39;102021.28;;;3.41;100.00
21203;BME280;10759;51.982;9.232;2024-01-27T03:48:07;102031.94;;;3.43;100.00
21203;BME280;10759;51.982;9.232;2024-01-27T03:50:35;102032.84;;;3.45;100.00
21203;BME280;10759;51.982;9.232;2024-01-27T03:53:05;102007.94;;;3.35;100.00
21203;BME280;10759;51.982;9.232;2024-01-27T03:55:33;102039.97;;;3.49;100.00
21203;BME280;10759;51.982;9.232;2024-01-27T03:58:01;102042.50;;;3.41;100.00
21203;BME280;10759;51.982;9.232;2024-01-27T04:00:29;102028.19;;;3.32;100.00
21203;BME280;10759;51.982;9.232;2024-01-27T04:02:59;102039.88;;;3.43;100.00
21203;BME280;10759;51.982;9.232;2024-01-27T04:05:30;102043.38;;;3.42;100.00
21203;BME280;10759;51.982;9.232;2024-01-27T04:07:58;102043.34;;;3.39;100.00
21203;BME280;10759;51.982;9.232;2024-01-27T04:10:27;102041.56;;;3.39;100.00
21203;BME280;10759;51.982;9.232;2024-01-27T04:12:56;102039.75;;;3.37;100.00
21203;BME280;10759;51.982;9.232;2024-01-27T04:15:24;102047.84;;;3.44;100.00
21203;BME280;10759;51.982;9.232;2024-01-27T04:17:52;102031.88;;;3.40;100.00
21203;BME280;10759;51.982;9.232;2024-01-27T04:20:21;102027.34;;;3.33;100.00
21203;BME280;10759;51.982;9.232;2024-01-27T04:22:49;102039.72;;;3.34;100.00
21203;BME280;10759;51.982;9.232;2024-01-27T04:25:17;102038.97;;;3.41;100.00
21203;BME280;10759;51.982;9.232;2024-01-27T04:27:46;102034.47;;;3.37;100.00
21203;BME280;10759;51.982;9.232;2024-01-27T04:30:14;102026.13;;;3.15;100.00
21203;BME280;10759;51.982;9.232;2024-01-27T04:32:42;101992.22;;;2.97;100.00
21203;BME280;10759;51.982;9.232;2024-01-27T04:35:11;102044.78;;;3.21;100.00
21203;BME280;10759;51.982;9.232;2024-01-27T04:37:39;102015.53;;;3.15;100.00
21203;BME280;10759;51.982;9.232;2024-01-27T04:40:08;102040.38;;;3.20;100.00
21203;BME280;10759;51.982;9.232;2024-01-27T04:42:37;102045.63;;;3.19;100.00
21203;BME280;10759;51.982;9.232;2024-01-27T04:45:08;101933.06;;;2.50;100.00
21203;BME280;10759;51.982;9.232;2024-01-27T04:47:36;101921.44;;;2.42;100.00
21203;BME280;10759;51.982;9.232;2024-01-27T04:50:05;102047.88;;;2.99;100.00
21203;BME280;10759;51.982;9.232;2024-01-27T04:52:33;102049.31;;;2.82;100.00
21203;BME280;10759;51.982;9.232;2024-01-27T04:55:01;102051.91;;;2.80;100.00
21203;BME280;10759;51.982;9.232;2024-01-27T04:57:29;102050.44;;;2.94;100.00
21203;BME280;10759;51.982;9.232;2024-01-27T04:59:58;102054.06;;;2.98;100.00
21203;BME280;10759;51.982;9.232;2024-01-27T05:02:28;102062.00;;;2.98;100.00
21203;BME280;10759;51.982;9.232;2024-01-27T05:04:55;102064.38;;;2.84;100.00
21203;BME280;10759;51.982;9.232;2024-01-27T05:07:23;102066.72;;;2.69;100.00
21203;BME280;10759;51.982;9.232;2024-01-27T05:09:51;102073.09;;;2.78;100.00
21203;BME280;10759;51.982;9.232;2024-01-27T05:12:19;102083.31;;;2.63;100.00
21203;BME280;10759;51.982;9.232;2024-01-27T05:14:47;102085.91;;;2.60;100.00
21203;BME280;10759;51.982;9.232;2024-01-27T05:17:16;102081.34;;;2.51;100.00
21203;BME280;10759;51.982;9.232;2024-01-27T05:19:45;102097.81;;;2.40;100.00
21203;BME280;10759;51.982;9.232;2024-01-27T05:22:13;102094.03;;;2.28;100.00
21203;BME280;10759;51.982;9.232;2024-01-27T05:24:41;102104.88;;;2.39;100.00
21203;BME280;10759;51.982;9.232;2024-01-27T05:27:09;102104.59;;;2.28;100.00
21203;BME280;10759;51.982;9.232;2024-01-27T05:29:37;102101.31;;;2.39;100.00
21203;BME280;10759;51.982;9.232;2024-01-27T05:32:06;102108.19;;;2.30;100.00
21203;BME280;10759;51.982;9.232;2024-01-27T05:34:34;102100.03;;;2.21;100.00
21203;BME280;10759;51.982;9.232;2024-01-27T05:37:03;102097.91;;;2.06;100.00
21203;BME280;10759;51.982;9.232;2024-01-27T05:39:31;102106.75;;;2.07;100.00
21203;BME280;10759;51.982;9.232;2024-01-27T05:42:00;102081.72;;;1.92;100.00
21203;BME280;10759;51.982;9.232;2024-01-27T05:44:29;102100.59;;;2.08;100.00
21203;BME280;10759;51.982;9.232;2024-01-27T05:46:57;102107.66;;;2.09;100.00
21203;BME280;10759;51.982;9.232;2024-01-27T05:49:25;102103.88;;;1.98;100.00
21203;BME280;10759;51.982;9.232;2024-01-27T05:51:54;102108.59;;;2.11;100.00
21203;BME280;10759;51.982;9.232;2024-01-27T05:54:23;102103.00;;;1.97;100.00
21203;BME280;10759;51.982;9.232;2024-01-27T05:56:51;102105.59;;;1.96;100.00
21203;BME280;10759;51.982;9.232;2024-01-27T05:59:19;102106.47;;;1.95;100.00
21203;BME280;10759;51.982;9.232;2024-01-27T06:01:47;102052.41;;;1.48;100.00
21203;BME280;10759;51.982;9.232;2024-01-27T06:04:15;102119.13;;;1.73;100.00
21203;BME280;10759;51.982;9.232;2024-01-27T06:06:43;102134.28;;;1.80;100.00
21203;BME280;10759;51.982;9.232;2024-01-27T06:09:11;102116.41;;;1.70;100.00
21203;BME280;10759;51.982;9.232;2024-01-27T06:11:42;102102.25;;;1.68;100.00
21203;BME280;10759;51.982;9.232;2024-01-27T06:14:10;102065.56;;;1.45;100.00
21203;BME280;10759;51.982;9.232;2024-01-27T06:16:38;102151.16;;;1.85;100.00
21203;BME280;10759;51.982;9.232;2024-01-27T06:19:06;102140.28;;;1.73;100.00
21203;BME280;10759;51.982;9.232;2024-01-27T06:21:36;102149.97;;;1.74;100.00
21203;BME280;10759;51.982;9.232;2024-01-27T06:24:04;102146.38;;;1.70;100.00
21203;BME280;10759;51.982;9.232;2024-01-27T06:26:32;102149.97;;;1.73;100.00
21203;BME280;10759;51.982;9.232;2024-01-27T06:29:02;102138.25;;;1.63;100.00
21203;BME280;10759;51.982;9.232;2024-01-27T06:31:31;102130.75;;;1.46;100.00
21203;BME280;10759;51.982;9.232;2024-01-27T06:34:03;102156.22;;;1.44;100.00
21203;BME280;10759;51.982;9.232;2024-01-27T06:36:31;102157.31;;;1.53;100.00
21203;BME280;10759;51.982;9.232;2024-01-27T06:38:59;102142.88;;;1.38;100.00
21203;BME280;10759;51.982;9.232;2024-01-27T06:41:27;102137.13;;;1.23;100.00
21203;BME280;10759;51.982;9.232;2024-01-27T06:43:55;102168.13;;;1.28;100.00
21203;BME280;10759;51.982;9.232;2024-01-27T06:46:25;102168.31;;;1.04;100.00
21203;BME280;10759;51.982;9.232;2024-01-27T06:48:53;102176.31;;;1.07;100.00
21203;BME280;10759;51.982;9.232;2024-01-27T06:51:21;102185.94;;;1.05;100.00
21203;BME280;10759;51.982;9.232;2024-01-27T06:53:50;102169.84;;;0.96;100.00
21203;BME280;10759;51.982;9.232;2024-01-27T06:56:18;102174.69;;;1.13;100.00
21203;BME280;10759;51.982;9.232;2024-01-27T06:58:46;102117.47;;;0.81;100.00
21203;BME280;10759;51.982;9.232;2024-01-27T07:01:14;102183.13;;;1.29;100.00
21203;BME280;10759;51.982;9.232;2024-01-27T07:03:44;102185.03;;;1.35;100.00
21203;BME280;10759;51.982;9.232;2024-01-27T07:06:12;102180.44;;;1.28;100.00
21203;BME280;10759;51.982;9.232;2024-01-27T07:08:40;102179.31;;;1.20;100.00
21203;BME280;10759;51.982;9.232;2024-01-27T07:11:08;102203.09;;;1.20;100.00
21203;BME280;10759;51.982;9.232;2024-01-27T07:13:36;102211.72;;;1.14;100.00
21203;BME280;10759;51.982;9.232;2024-01-27T07:16:05;102212.25;;;1.02;100.00
21203;BME280;10759;51.982;9.232;2024-01-27T07:18:33;102211.03;;;0.91;100.00
21203;BME280;10759;51.982;9.232;2024-01-27T07:21:04;102209.88;;;0.83;100.00
21203;BME280;10759;51.982;9.232;2024-01-27T07:23:35;102215.00;;;0.77;100.00
21203;BME280;10759;51.982;9.232;2024-01-27T07:26:03;102192.38;;;0.85;100.00
21203;BME280;10759;51.982;9.232;2024-01-27T07:28:31;102221.13;;;1.04;100.00
21203;BME280;10759;51.982;9.232;2024-01-27T07:30:59;102216.50;;;0.97;100.00
21203;BME280;10759;51.982;9.232;2024-01-27T07:33:27;102220.38;;;0.80;100.00
21203;BME280;10759;51.982;9.232;2024-01-27T07:35:56;102219.13;;;0.69;100.00
21203;BME280;10759;51.982;9.232;2024-01-27T07:38:25;102186.97;;;0.53;100.00
21203;BME280;10759;51.982;9.232;2024-01-27T07:40:53;102192.72;;;0.40;100.00
21203;BME280;10759;51.982;9.232;2024-01-27T07:43:21;102216.28;;;0.62;100.00
21203;BME280;10759;51.982;9.232;2024-01-27T07:45:49;102219.25;;;0.72;100.00
21203;BME280;10759;51.982;9.232;2024-01-27T07:48:19;102178.75;;;0.44;100.00
21203;BME280;10759;51.982;9.232;2024-01-27T07:50:47;102214.69;;;0.68;100.00
21203;BME280;10759;51.982;9.232;2024-01-27T07:53:17;102230.19;;;0.84;100.00
21203;BME280;10759;51.982;9.232;2024-01-27T07:55:46;102236.50;;;0.89;100.00
21203;BME280;10759;51.982;9.232;2024-01-27T07:58:14;102231.22;;;0.89;100.00
21203;BME280;10759;51.982;9.232;2024-01-27T08:00:42;102235.63;;;0.90;100.00
21203;BME280;10759;51.982;9.232;2024-01-27T08:03:11;102244.47;;;1.19;100.00
21203;BME280;10759;51.982;9.232;2024-01-27T08:05:39;102237.41;;;1.18;100.00
21203;BME280;10759;51.982;9.232;2024-01-27T08:08:07;102230.00;;;1.08;100.00
21203;BME280;10759;51.982;9.232;2024-01-27T08:10:35;102235.00;;;1.27;100.00
21203;BME280;10759;51.982;9.232;2024-01-27T08:13:05;102235.81;;;1.25;100.00
21203;BME280;10759;51.982;9.232;2024-01-27T08:15:33;102237.69;;;1.29;100.00
21203;BME280;10759;51.982;9.232;2024-01-27T08:18:01;102217.25;;;1.22;100.00
21203;BME280;10759;51.982;9.232;2024-01-27T08:20:30;102235.47;;;1.43;100.00
21203;BME280;10759;51.982;9.232;2024-01-27T08:22:58;102183.56;;;1.15;100.00
21203;BME280;10759;51.982;9.232;2024-01-27T08:25:27;102245.94;;;1.70;100.00
21203;BME280;10759;51.982;9.232;2024-01-27T08:27:55;102251.38;;;1.76;100.00
21203;BME280;10759;51.982;9.232;2024-01-27T08:30:25;102255.13;;;1.84;100.00
21203;BME280;10759;51.982;9.232;2024-01-27T08:32:53;102253.63;;;1.94;100.00
21203;BME280;10759;51.982;9.232;2024-01-27T08:35:21;102252.81;;;1.97;100.00
21203;BME280;10759;51.982;9.232;2024-01-27T08:37:49;102239.72;;;2.01;100.00
21203;BME280;10759;51.982;9.232;2024-01-27T08:40:17;102185.28;;;1.76;100.00
21203;BME280;10759;51.982;9.232;2024-01-27T08:42:45;102244.41;;;2.11;100.00
21203;BME280;10759;51.982;9.232;2024-01-27T08:45:13;102255.53;;;2.33;100.00
21203;BME280;10759;51.982;9.232;2024-01-27T08:47:43;102256.75;;;2.46;100.00
21203;BME280;10759;51.982;9.232;2024-01-27T08:50:11;102248.19;;;2.56;100.00
21203;BME280;10759;51.982;9.232;2024-01-27T08:52:39;102261.56;;;2.62;100.00
21203;BME280;10759;51.982;9.232;2024-01-27T08:55:07;102251.94;;;2.66;100.00
21203;BME280;10759;51.982;9.232;2024-01-27T08:57:37;102259.56;;;2.52;100.00
21203;BME280;10759;51.982;9.232;2024-01-27T09:00:06;102261.69;;;2.67;100.00
21203;BME280;10759;51.982;9.232;2024-01-27T09:02:35;102253.75;;;2.68;100.00
21203;BME280;10759;51.982;9.232;2024-01-27T09:05:05;102255.91;;;2.83;100.00
21203;BME280;10759;51.982;9.232;2024-01-27T09:07:33;102252.91;;;3.07;100.00
21203;BME280;10759;51.982;9.232;2024-01-27T09:10:02;102257.69;;;3.23;100.00
21203;BME280;10759;51.982;9.232;2024-01-27T09:12:30;102261.41;;;3.32;100.00
21203;BME280;10759;51.982;9.232;2024-01-27T09:14:58;102241.19;;;3.37;100.00
21203;BME280;10759;51.982;9.232;2024-01-27T09:17:26;102256.53;;;3.52;100.00
21203;BME280;10759;51.982;9.232;2024-01-27T09:19:54;102250.47;;;3.57;100.00
21203;BME280;10759;51.982;9.232;2024-01-27T09:22:24;102179.09;;;3.22;100.00
21203;BME280;10759;51.982;9.232;2024-01-27T09:24:52;102250.34;;;3.51;100.00
21203;BME280;10759;51.982;9.232;2024-01-27T09:27:20;102260.25;;;3.60;100.00
21203;BME280;10759;51.982;9.232;2024-01-27T09:29:48;102252.56;;;3.74;100.00
21203;BME280;10759;51.982;9.232;2024-01-27T09:32:16;102257.63;;;4.08;100.00
21203;BME280;10759;51.982;9.232;2024-01-27T09:34:44;102262.31;;;4.22;100.00
21203;BME280;10759;51.982;9.232;2024-01-27T09:37:13;102263.22;;;4.22;100.00
21203;BME280;10759;51.982;9.232;2024-01-27T09:39:42;102235.53;;;4.08;100.00
21203;BME280;10759;51.982;9.232;2024-01-27T09:42:12;102276.88;;;4.44;100.00
21203;BME280;10759;51.982;9.232;2024-01-27T09:44:43;102274.22;;;4.44;100.00
21203;BME280;10759;51.982;9.232;2024-01-27T09:47:12;102273.53;;;4.56;100.00
21203;BME280;10759;51.982;9.232;2024-01-27T09:49:40;102253.09;;;4.51;100.00
21203;BME280;10759;51.982;9.232;2024-01-27T09:52:09;102253.19;;;4.58;100.00
21203;BME280;10759;51.982;9.232;2024-01-27T09:54:37;102288.97;;;4.78;100.00
21203;BME280;10759;51.982;9.232;2024-01-27T09:57:07;102278.28;;;4.75;100.00
21203;BME280;10759;51.982;9.232;2024-01-27T09:59:36;102281.16;;;4.89;100.00
21203;BME280;10759;51.982;9.232;2024-01-27T10:02:09;102291.03;;;4.99;100.00
21203;BME280;10759;51.982;9.232;2024-01-27T10:04:40;102265.09;;;4.81;100.00
21203;BME280;10759;51.982;9.232;2024-01-27T10:07:09;102288.31;;;4.94;100.00
21203;BME280;10759;51.982;9.232;2024-01-27T10:09:37;102295.50;;;5.02;100.00
21203;BME280;10759;51.982;9.232;2024-01-27T10:12:09;102285.00;;;5.08;100.00
21203;BME280;10759;51.982;9.232;2024-01-27T10:14:38;102292.25;;;5.21;100.00
21203;BME280;10759;51.982;9.232;2024-01-27T10:17:09;102299.38;;;5.22;100.00
21203;BME280;10759;51.982;9.232;2024-01-27T10:19:37;102283.53;;;5.31;100.00
21203;BME280;10759;51.982;9.232;2024-01-27T10:22:11;102298.69;;;5.35;100.00
21203;BME280;10759;51.982;9.232;2024-01-27T10:24:39;102280.94;;;5.36;100.00
21203;BME280;10759;51.982;9.232;2024-01-27T10:27:09;102284.72;;;5.52;100.00
21203;BME280;10759;51.982;9.232;2024-01-27T10:29:37;102239.25;;;5.33;100.00
21203;BME280;10759;51.982;9.232;2024-01-27T10:32:08;102299.97;;;5.65;100.00
21203;BME280;10759;51.982;9.232;2024-01-27T10:34:37;102295.47;;;5.59;100.00
21203;BME280;10759;51.982;9.232;2024-01-27T10:37:05;102303.38;;;5.55;100.00
21203;BME280;10759;51.982;9.232;2024-01-27T10:39:33;102239.16;;;5.26;100.00
21203;BME280;10759;51.982;9.232;2024-01-27T10:42:02;102287.59;;;5.70;100.00
21203;BME280;10759;51.982;9.232;2024-01-27T10:44:33;102303.84;;;5.92;100.00
21203;BME280;10759;51.982;9.232;2024-01-27T10:47:02;102293.06;;;5.82;100.00
21203;BME280;10759;51.982;9.232;2024-01-27T10:49:34;102292.41;;;5.96;100.00
21203;BME280;10759;51.982;9.232;2024-01-27T10:52:10;102290.44;;;5.84;100.00
21203;BME280;10759;51.982;9.232;2024-01-27T10:54:40;102261.91;;;5.72;100.00
21203;BME280;10759;51.982;9.232;2024-01-27T10:57:09;102282.28;;;5.70;100.00
21203;BME280;10759;51.982;9.232;2024-01-27T10:59:42;102285.97;;;5.83;100.00
21203;BME280;10759;51.982;9.232;2024-01-27T11:02:13;102291.28;;;5.78;100.00
21203;BME280;10759;51.982;9.232;2024-01-27T11:04:42;102286.28;;;6.03;100.00
21203;BME280;10759;51.982;9.232;2024-01-27T11:07:11;102259.47;;;5.91;100.00
21203;BME280;10759;51.982;9.232;2024-01-27T11:09:39;102276.56;;;6.10;100.00
21203;BME280;10759;51.982;9.232;2024-01-27T11:12:09;102244.38;;;5.90;100.00
21203;BME280;10759;51.982;9.232;2024-01-27T11:14:40;102268.47;;;5.99;100.00
21203;BME280;10759;51.982;9.232;2024-01-27T11:17:09;102282.72;;;6.04;100.00
21203;BME280;10759;51.982;9.232;2024-01-27T11:19:39;102248.88;;;5.95;100.00
21203;BME280;10759;51.982;9.232;2024-01-27T11:22:07;102272.19;;;6.16;100.00
21203;BME280;10759;51.982;9.232;2024-01-27T11:24:35;102274.03;;;6.20;100.00
21203;BME280;10759;51.982;9.232;2024-01-27T11:27:05;102248.09;;;6.01;100.00
21203;BME280;10759;51.982;9.232;2024-01-27T11:29:35;102280.28;;;6.26;100.00
21203;BME280;10759;51.982;9.232;2024-01-27T11:32:05;102276.63;;;6.17;100.00
21203;BME280;10759;51.982;9.232;2024-01-27T11:34:44;102267.00;;;6.29;100.00
21203;BME280;10759;51.982;9.232;2024-01-27T11:37:15;102246.44;;;6.14;100.00
21203;BME280;10759;51.982;9.232;2024-01-27T11:39:44;102217.88;;;5.96;100.00
21203;BME280;10759;51.982;9.232;2024-01-27T11:42:13;102266.91;;;6.22;100.00
21203;BME280;10759;51.982;9.232;2024-01-27T11:44:42;102269.72;;;6.36;100.00
21203;BME280;10759;51.982;9.232;2024-01-27T11:47:16;102235.88;;;6.24;100.00
21203;BME280;10759;51.982;9.232;2024-01-27T11:49:50;102284.81;;;6.37;100.00
21203;BME280;10759;51.982;9.232;2024-01-27T11:52:20;102280.38;;;6.36;100.00
21203;BME280;10759;51.982;9.232;2024-01-27T11:54:54;102280.47;;;6.45;100.00
21203;BME280;10759;51.982;9.232;2024-01-27T11:57:22;102290.16;;;6.39;100.00
21203;BME280;10759;51.982;9.232;2024-01-27T11:59:50;102278.63;;;6.38;100.00
21203;BME280;10759;51.982;9.232;2024-01-27T12:02:20;102267.13;;;6.41;100.00
21203;BME280;10759;51.982;9.232;2024-01-27T12:04:48;102267.97;;;6.38;100.00
21203;BME280;10759;51.982;9.232;2024-01-27T12:07:17;102197.53;;;6.04;100.00
21203;BME280;10759;51.982;9.232;2024-01-27T12:09:48;102261.81;;;6.44;100.00
21203;BME280;10759;51.982;9.232;2024-01-27T12:12:16;102264.53;;;6.50;100.00
21203;BME280;10759;51.982;9.232;2024-01-27T12:14:45;102283.13;;;6.47;100.00
21203;BME280;10759;51.982;9.232;2024-01-27T12:17:15;102286.75;;;6.54;100.00
21203;BME280;10759;51.982;9.232;2024-01-27T12:19:47;102282.31;;;6.53;100.00
21203;BME280;10759;51.982;9.232;2024-01-27T12:22:23;102288.63;;;6.62;100.00
21203;BME280;10759;51.982;9.232;2024-01-27T12:24:53;102277.03;;;6.57;100.00
21203;BME280;10759;51.982;9.232;2024-01-27T12:27:21;102248.50;;;6.47;100.00
21203;BME280;10759;51.982;9.232;2024-01-27T12:29:50;102277.06;;;6.63;100.00
21203;BME280;10759;51.982;9.232;2024-01-27T12:32:18;102278.94;;;6.74;99.98
21203;BME280;10759;51.982;9.232;2024-01-27T12:34:48;102274.47;;;6.74;98.15
21203;BME280;10759;51.982;9.232;2024-01-27T12:37:17;102278.03;;;6.72;97.53
21203;BME280;10759;51.982;9.232;2024-01-27T12:39:46;102280.72;;;6.75;96.32
21203;BME280;10759;51.982;9.232;2024-01-27T12:42:17;102280.72;;;6.76;97.13
21203;BME280;10759;51.982;9.232;2024-01-27T12:44:46;102276.25;;;6.74;96.08
21203;BME280;10759;51.982;9.232;2024-01-27T12:47:14;102286.09;;;6.84;94.28
21203;BME280;10759;51.982;9.232;2024-01-27T12:49:42;102286.00;;;6.72;95.53
21203;BME280;10759;51.982;9.232;2024-01-27T12:52:12;102281.56;;;6.71;97.17
21203;BME280;10759;51.982;9.232;2024-01-27T12:54:40;102285.25;;;6.88;94.57
21203;BME280;10759;51.982;9.232;2024-01-27T12:57:08;102284.38;;;6.84;94.19